Time;durP1;ratioP1;P1;durP2;ratioP2;P2;SDS_P1;SDS_P2;PMS_P1;PMS_P2;Temp;Humidity;BMP_temperature;BMP_pressure;BME280_temperature;BME280_humidity;BME280_pressure;Samples;Min_cycle;Max_cycle;Signal;HPM_P1;HPM_P2
2022/02/18 00:01:27;;;;;;;10.60;3.95;;;;;;;8.81;64.47;99812.22;5128630;27;20425;-62
2022/02/18 00:03:55;;;;;;;10.55;4.78;;;;;;;8.66;65.25;99809.84;5132180;27;20043;-62
2022/02/18 00:06:24;;;;;;;7.75;3.90;;;;;;;8.72;65.09;99803.03;5132250;27;20043;-62
2022/02/18 00:08:52;;;;;;;12.00;4.50;;;;;;;8.70;65.27;99805.31;5132639;27;20379;-62
2022/02/18 00:11:19;;;;;;;10.25;3.95;;;;;;;8.70;65.48;99805.31;5131879;27;20058;-62
2022/02/18 00:13:46;;;;;;;11.15;3.88;;;;;;;8.66;66.08;99790.41;5132455;27;20500;-62
2022/02/18 00:16:15;;;;;;;10.65;3.70;;;;;;;8.69;65.73;99798.09;5128188;27;20058;-62
2022/02/18 00:18:43;;;;;;;13.30;4.50;;;;;;;8.66;65.89;99793.19;5126848;27;20047;-62
2022/02/18 00:21:11;;;;;;;12.13;4.38;;;;;;;8.60;66.47;99806.38;5131619;27;20767;-62
2022/02/18 00:23:42;;;;;;;10.18;4.50;;;;;;;8.54;67.25;99804.88;5131375;27;20407;-62
2022/02/18 00:26:11;;;;;;;12.15;4.60;;;;;;;8.51;67.30;99806.34;5132070;27;20490;-62
2022/02/18 00:28:38;;;;;;;10.82;3.92;;;;;;;8.52;67.16;99801.59;5132017;27;20047;-62
2022/02/18 00:31:06;;;;;;;12.23;4.35;;;;;;;8.48;67.64;99806.97;5129901;27;20169;-62
2022/02/18 00:33:33;;;;;;;12.18;5.10;;;;;;;8.35;68.58;99802.28;5130816;27;20072;-62
2022/02/18 00:36:00;;;;;;;14.10;4.88;;;;;;;8.36;68.14;99809.47;5132204;27;20475;-62
2022/02/18 00:38:28;;;;;;;15.95;5.43;;;;;;;8.30;68.79;99807.97;5132725;27;20043;-62
2022/02/18 00:40:56;;;;;;;10.38;4.97;;;;;;;8.30;68.65;99811.53;5132775;27;20058;-62
2022/02/18 00:43:24;;;;;;;13.20;5.28;;;;;;;8.33;69.35;99812.88;5132126;27;20423;-62
2022/02/18 00:45:54;;;;;;;10.15;4.82;;;;;;;8.36;68.65;99815.03;5130770;27;20051;-62
2022/02/18 00:48:21;;;;;;;12.38;4.97;;;;;;;8.27;69.51;99817.75;5132203;27;20078;-62
2022/02/18 00:50:48;;;;;;;11.73;4.72;;;;;;;8.27;69.36;99816.91;5133167;27;20047;-62
2022/02/18 00:53:16;;;;;;;12.20;4.78;;;;;;;8.26;69.97;99820.81;5132406;27;20050;-62
2022/02/18 00:55:45;;;;;;;14.98;5.90;;;;;;;8.16;69.98;99821.88;5133000;27;20051;-62
2022/02/18 00:58:14;;;;;;;;;;;;;;;8.18;70.10;99818.78;5133300;28;20070;-62
2022/02/18 01:00:41;;;;;;;15.00;4.85;;;;;;;8.20;70.15;99822.88;5130717;28;19923;-62
2022/02/18 01:03:08;;;;;;;11.90;4.68;;;;;;;8.18;70.39;99822.38;5132462;28;20047;-62
2022/02/18 01:05:36;;;;;;;16.65;6.07;;;;;;;8.24;69.85;99817.53;5132301;28;20054;-62
2022/02/18 01:08:03;;;;;;;13.68;5.28;;;;;;;8.27;69.77;99825.22;5132042;28;20043;-62
2022/02/18 01:10:30;;;;;;;17.48;5.35;;;;;;;8.27;70.08;99828.00;5132823;28;20490;-62
2022/02/18 01:13:00;;;;;;;14.57;5.15;;;;;;;8.31;70.13;99817.91;5132058;28;20062;-62
2022/02/18 01:15:29;;;;;;;13.77;4.30;;;;;;;8.33;69.43;99826.75;5130453;28;20051;-62
2022/02/18 01:17:57;;;;;;;10.95;4.57;;;;;;;8.20;69.86;99810.97;5131831;28;20043;-62
2022/02/18 01:20:24;;;;;;;17.60;5.13;;;;;;;8.24;70.25;99798.13;5131970;28;20411;-62
2022/02/18 01:22:51;;;;;;;16.73;4.80;;;;;;;8.25;70.39;99794.19;5132070;28;20422;-62
2022/02/18 01:25:19;;;;;;;10.02;4.25;;;;;;;8.32;69.79;99789.84;5132756;28;20073;-62
2022/02/18 01:27:46;;;;;;;11.52;3.97;;;;;;;8.33;69.62;99780.38;5131488;28;20055;-62
2022/02/18 01:30:15;;;;;;;18.83;4.55;;;;;;;8.37;69.71;99793.63;5132320;27;20468;-62
2022/02/18 01:32:44;;;;;;;10.32;4.22;;;;;;;8.39;70.02;99791.38;5136489;27;20074;-62
2022/02/18 01:35:15;;;;;;;16.08;4.68;;;;;;;8.42;70.06;99791.59;5135985;27;20418;-62
2022/02/18 01:37:42;;;;;;;10.70;4.30;;;;;;;8.44;69.88;99794.88;5136288;27;20054;-62
2022/02/18 01:40:11;;;;;;;11.48;3.70;;;;;;;8.43;69.53;99779.34;5136378;27;20063;-62
2022/02/18 01:42:39;;;;;;;21.30;4.97;;;;;;;8.51;69.64;99784.13;5135516;27;20545;-62
2022/02/18 01:45:07;;;;;;;14.30;3.40;;;;;;;8.49;69.43;99775.28;5130500;27;20047;-62
2022/02/18 01:47:35;;;;;;;17.15;4.40;;;;;;;8.47;69.68;99766.47;5121540;27;20047;-62
2022/02/18 01:50:05;;;;;;;13.45;3.83;;;;;;;8.57;69.11;99770.09;5136297;27;20054;-62
2022/02/18 01:52:36;;;;;;;12.90;4.00;;;;;;;8.54;68.94;99761.28;5136226;27;20047;-62
2022/02/18 01:55:10;;;;;;;13.95;3.35;;;;;;;8.58;68.83;99757.88;5135418;27;20051;-62
2022/02/18 01:57:39;;;;;;;11.00;3.10;;;;;;;8.57;68.98;99759.00;5117749;27;20048;-62
2022/02/18 02:00:09;;;;;;;13.15;3.97;;;;;;;8.51;69.09;99753.59;5133338;27;20050;-62
2022/02/18 02:02:37;;;;;;;17.27;4.53;;;;;;;8.57;68.59;99757.06;5135595;27;20047;-62
2022/02/18 02:05:08;;;;;;;10.55;3.33;;;;;;;8.62;68.55;99762.47;5135213;27;20051;-62
2022/02/18 02:07:35;;;;;;;11.77;3.38;;;;;;;8.56;68.86;99760.97;5114633;28;20052;-62
2022/02/18 02:10:04;;;;;;;13.90;3.75;;;;;;;8.62;68.61;99756.91;5118751;27;20483;-62
2022/02/18 02:12:31;;;;;;;13.20;3.70;;;;;;;8.72;68.33;99747.50;5135098;27;20059;-62
2022/02/18 02:14:58;;;;;;;21.08;4.15;;;;;;;8.68;68.87;99744.53;5133634;27;20490;-62
2022/02/18 02:17:26;;;;;;;16.92;4.15;;;;;;;8.64;68.68;99749.09;5135478;27;20535;-61
2022/02/18 02:19:53;;;;;;;15.32;4.00;;;;;;;8.49;69.18;99736.44;5135571;27;20054;-62
2022/02/18 02:22:27;;;;;;;14.48;3.67;;;;;;;8.60;69.30;99736.16;5135807;27;20058;-62
2022/02/18 02:24:55;;;;;;;11.23;3.53;;;;;;;8.59;68.88;99734.50;5135426;27;20047;-62
2022/02/18 02:27:23;;;;;;;15.77;3.45;;;;;;;8.45;69.12;99729.88;5135132;27;20058;-62
2022/02/18 02:29:51;;;;;;;13.45;3.70;;;;;;;8.56;68.93;99729.63;5132889;27;20043;-62
2022/02/18 02:32:21;;;;;;;12.52;3.30;;;;;;;8.58;69.18;99738.44;5135061;27;20051;-62
2022/02/18 02:34:49;;;;;;;16.50;4.28;;;;;;;8.46;69.63;99741.81;5135196;27;20066;-62
2022/02/18 02:37:16;;;;;;;16.23;3.50;;;;;;;8.60;69.06;99741.72;5135527;27;20047;-62
2022/02/18 02:39:45;;;;;;;15.10;3.60;;;;;;;8.68;68.61;99743.72;5134797;27;20055;-62
2022/02/18 02:42:13;;;;;;;14.20;3.25;;;;;;;8.62;69.21;99745.00;5132626;27;20066;-62
2022/02/18 02:44:40;;;;;;;15.88;3.90;;;;;;;8.72;68.27;99736.38;5126732;27;20497;-61
2022/02/18 02:47:08;;;;;;;17.90;3.83;;;;;;;8.63;68.54;99713.31;5114423;28;20056;-62
2022/02/18 02:49:35;;;;;;;14.27;3.80;;;;;;;8.67;68.44;99714.31;5113848;28;20043;-62
2022/02/18 02:52:02;;;;;;;13.25;3.75;;;;;;;8.72;68.36;99712.22;5128517;27;20059;-62
2022/02/18 02:54:32;;;;;;;14.95;3.83;;;;;;;8.71;68.03;99704.19;5134167;27;20051;-62
2022/02/18 02:57:01;;;;;;;15.43;3.88;;;;;;;8.67;68.56;99705.97;5133581;27;20055;-62
2022/02/18 02:59:29;;;;;;;11.95;3.58;;;;;;;8.74;68.35;99698.81;5130202;27;20044;-62
2022/02/18 03:01:56;;;;;;;14.68;3.70;;;;;;;8.74;67.91;99690.50;5121933;27;20047;-62
2022/02/18 03:04:23;;;;;;;12.43;3.83;;;;;;;8.80;68.01;99682.00;5133943;27;20510;-62
2022/02/18 03:06:53;;;;;;;18.80;3.83;;;;;;;8.87;67.86;99685.97;5134633;27;20066;-62
2022/02/18 03:09:20;;;;;;;17.52;4.72;;;;;;;8.83;67.80;99673.88;5134164;27;20047;-62
2022/02/18 03:11:48;;;;;;;10.75;3.70;;;;;;;8.76;68.05;99656.88;5133803;27;20058;-62
2022/02/18 03:14:20;;;;;;;14.90;3.92;;;;;;;8.79;68.11;99650.66;5133701;27;20548;-62
2022/02/18 03:16:47;;;;;;;16.70;3.90;;;;;;;8.77;68.30;99644.59;5133642;27;20058;-62
2022/02/18 03:19:14;;;;;;;19.38;3.58;;;;;;;8.80;68.30;99638.44;5134542;27;20043;-62
2022/02/18 03:21:44;;;;;;;13.93;3.40;;;;;;;8.84;67.84;99636.63;5133752;27;20522;-62
2022/02/18 03:24:14;;;;;;;;;;;;;;;8.70;68.09;99633.16;5134569;27;20480;-62
2022/02/18 03:26:41;;;;;;;;;;;;;;;8.78;68.33;99629.59;5134186;27;19933;-62
2022/02/18 03:29:09;;;;;;;11.88;3.50;;;;;;;8.74;68.25;99623.06;5132303;27;19927;-62
2022/02/18 03:31:37;;;;;;;16.17;4.00;;;;;;;8.81;68.07;99630.91;5114133;27;20048;-62
2022/02/18 03:34:05;;;;;;;17.20;3.83;;;;;;;8.81;68.01;99619.78;5116840;27;20047;-62
2022/02/18 03:36:32;;;;;;;17.15;3.95;;;;;;;8.69;68.20;99626.81;5133770;27;20055;-62
2022/02/18 03:39:09;;;;;;;9.85;3.55;;;;;;;8.82;68.25;99624.19;5134020;27;20061;-62
2022/02/18 03:41:36;;;;;;;16.50;3.85;;;;;;;8.75;68.47;99633.00;5133914;27;20051;-62
2022/02/18 03:44:06;;;;;;;13.25;3.75;;;;;;;8.61;69.10;99627.59;5129898;27;20051;-62
2022/02/18 03:46:33;;;;;;;;;;;;;;;8.54;69.12;99621.69;5134412;27;20419;-62
2022/02/18 03:49:02;;;;;;;14.50;3.70;;;;;;;8.57;69.07;99625.75;5133958;27;19935;-62
2022/02/18 03:51:29;;;;;;;15.85;3.75;;;;;;;8.47;69.38;99615.78;5133430;27;20059;-62
2022/02/18 03:54:00;;;;;;;16.33;4.47;;;;;;;8.46;69.96;99617.75;5132590;27;20476;-62
2022/02/18 03:56:27;;;;;;;14.38;4.28;;;;;;;8.56;69.53;99608.28;5133517;27;20051;-62
2022/02/18 03:58:55;;;;;;;21.02;4.30;;;;;;;8.50;70.01;99599.31;5130674;27;20066;-62
2022/02/18 04:01:25;;;;;;;17.60;4.47;;;;;;;8.50;69.45;99587.38;5133468;27;20077;-62
2022/02/18 04:03:52;;;;;;;16.65;5.15;;;;;;;8.32;70.68;99586.50;5132631;27;20062;-62
2022/02/18 04:06:21;;;;;;;21.23;5.15;;;;;;;8.47;70.25;99577.75;5133117;27;20507;-62
2022/02/18 04:08:48;;;;;;;16.77;4.30;;;;;;;8.38;70.62;99579.66;5133081;27;20047;-62
2022/02/18 04:11:19;;;;;;;16.65;4.50;;;;;;;8.46;70.35;99572.50;5123032;27;20055;-62
2022/02/18 04:13:46;;;;;;;16.60;5.22;;;;;;;8.50;70.31;99565.19;5130440;27;20047;-63
2022/02/18 04:16:14;;;;;;;16.67;4.55;;;;;;;8.51;70.43;99562.09;5132796;27;20058;-62
2022/02/18 04:18:41;;;;;;;18.20;4.82;;;;;;;8.46;70.38;99553.94;5132971;27;20058;-62
2022/02/18 04:21:09;;;;;;;19.30;5.22;;;;;;;8.43;70.12;99556.53;5132924;27;20047;-62
2022/02/18 04:23:38;;;;;;;17.83;4.78;;;;;;;8.51;69.81;99559.31;5131337;27;20051;-62
2022/02/18 04:26:05;;;;;;;16.35;4.30;;;;;;;8.52;70.34;99562.91;5132505;27;20514;-62
2022/02/18 04:28:32;;;;;;;17.98;4.40;;;;;;;8.37;70.68;99555.81;5125791;27;20052;-62
2022/02/18 04:31:00;;;;;;;17.30;4.90;;;;;;;8.56;70.04;99547.22;5130244;27;20507;-62
2022/02/18 04:33:27;;;;;;;19.17;4.57;;;;;;;8.52;69.92;99532.38;5132860;27;20507;-62
2022/02/18 04:35:54;;;;;;;17.27;4.53;;;;;;;8.56;69.80;99527.00;5132144;27;20050;-62
2022/02/18 04:38:24;;;;;;;15.00;4.00;;;;;;;8.58;69.50;99519.97;5133067;27;20538;-62
2022/02/18 04:40:53;;;;;;;17.23;4.60;;;;;;;8.64;69.56;99518.69;5132191;27;20484;-62
2022/02/18 04:43:20;;;;;;;19.17;4.85;;;;;;;8.46;69.43;99512.31;5130329;27;20042;-62
2022/02/18 04:45:47;;;;;;;16.05;4.50;;;;;;;8.44;69.81;99514.56;5132535;27;20054;-62
2022/02/18 04:48:14;;;;;;;15.45;4.82;;;;;;;8.45;69.56;99505.09;5132397;27;20062;-62
2022/02/18 04:50:42;;;;;;;14.65;4.15;;;;;;;8.41;69.80;99504.09;5131934;27;20047;-62
2022/02/18 04:53:09;;;;;;;18.45;5.03;;;;;;;8.43;69.47;99482.41;5132959;27;20062;-62
2022/02/18 04:55:37;;;;;;;14.88;4.45;;;;;;;8.36;69.56;99479.28;5132495;27;20054;-62
2022/02/18 04:58:06;;;;;;;15.52;4.00;;;;;;;8.42;69.45;99485.50;5129984;27;20054;-62
2022/02/18 05:00:34;;;;;;;15.85;4.40;;;;;;;8.58;68.86;99474.75;5130763;28;20399;-62
2022/02/18 05:03:01;;;;;;;15.70;4.30;;;;;;;8.60;68.84;99464.94;5122979;28;20050;-62
2022/02/18 05:05:28;;;;;;;15.18;4.13;;;;;;;8.45;69.12;99463.47;5133853;27;20054;-62
2022/02/18 05:07:55;;;;;;;14.38;4.00;;;;;;;8.48;68.50;99465.63;5136616;27;20047;-63
2022/02/18 05:10:23;;;;;;;18.38;4.18;;;;;;;8.50;68.70;99437.50;5136481;27;20043;-62
2022/02/18 05:12:50;;;;;;;17.80;3.92;;;;;;;8.42;68.01;99436.38;5133188;27;20055;-62
2022/02/18 05:15:19;;;;;;;16.90;3.95;;;;;;;8.65;67.32;99423.16;5119991;27;20047;-62
2022/02/18 05:17:48;;;;;;;12.50;3.80;;;;;;;8.71;67.41;99421.03;5135961;27;20055;-62
2022/02/18 05:20:16;;;;;;;16.20;3.77;;;;;;;8.80;66.68;99415.44;5139179;27;20047;-62
2022/02/18 05:22:44;;;;;;;12.35;3.08;;;;;;;8.73;66.69;99408.47;5135666;27;20051;-62
2022/02/18 05:25:12;;;;;;;16.60;3.72;;;;;;;8.91;65.95;99389.78;5136547;27;20411;-63
2022/02/18 05:27:39;;;;;;;15.27;4.18;;;;;;;8.87;65.48;99379.69;5133619;27;20415;-63
2022/02/18 05:30:07;;;;;;;15.70;3.83;;;;;;;8.72;66.11;99383.81;5123389;27;20043;-62
2022/02/18 05:32:36;;;;;;;11.55;3.42;;;;;;;8.84;65.34;99378.41;5127175;27;20058;-62
2022/02/18 05:35:06;;;;;;;12.20;3.05;;;;;;;8.76;65.14;99379.22;5134730;27;20431;-62
2022/02/18 05:37:34;;;;;;;8.90;2.83;;;;;;;8.90;65.49;99365.97;5133941;27;20231;-62
2022/02/18 05:40:01;;;;;;;11.95;2.80;;;;;;;8.98;64.88;99353.19;5131517;27;20058;-62
2022/02/18 05:42:28;;;;;;;14.00;4.10;;;;;;;8.94;64.88;99353.06;5136354;27;20054;-62
2022/02/18 05:44:55;;;;;;;16.20;3.33;;;;;;;9.00;64.82;99342.56;5123652;27;20050;-62
2022/02/18 05:47:23;;;;;;;11.98;3.17;;;;;;;9.02;64.81;99331.13;5122524;27;20062;-63
2022/02/18 05:49:52;;;;;;;18.40;3.58;;;;;;;8.86;64.99;99323.34;5118928;27;20058;-62
2022/02/18 05:52:19;;;;;;;14.10;3.15;;;;;;;8.76;64.83;99306.19;5133477;27;20047;-63
2022/02/18 05:54:47;;;;;;;12.75;3.03;;;;;;;8.85;64.92;99302.25;5139569;27;20487;-62
2022/02/18 05:57:16;;;;;;;11.20;3.03;;;;;;;8.85;64.96;99293.94;5133209;27;20054;-63
2022/02/18 05:59:44;;;;;;;13.90;3.20;;;;;;;8.78;64.73;99287.25;5115136;27;20050;-62
2022/02/18 06:02:11;;;;;;;15.15;3.25;;;;;;;8.80;64.56;99269.13;5118470;27;20055;-64
2022/02/18 06:04:38;;;;;;;10.75;3.25;;;;;;;8.83;63.73;99262.09;5127670;27;20050;-63
2022/02/18 06:07:10;;;;;;;11.63;3.10;;;;;;;8.72;63.73;99264.44;5131051;27;20057;-63
2022/02/18 06:09:37;;;;;;;13.00;3.40;;;;;;;8.69;63.71;99232.59;5156289;27;20047;-63
2022/02/18 06:12:06;;;;;;;9.80;2.80;;;;;;;8.69;63.27;99251.19;5151247;27;20491;-63
2022/02/18 06:14:33;;;;;;;11.07;2.97;;;;;;;8.62;63.65;99237.03;5132838;27;20066;-62
2022/02/18 06:17:02;;;;;;;14.85;3.50;;;;;;;8.73;63.13;99229.94;5134373;27;20054;-62
2022/02/18 06:19:29;;;;;;;11.23;2.95;;;;;;;8.76;62.96;99220.13;5134377;27;20047;-63
2022/02/18 06:21:56;;;;;;;11.90;3.03;;;;;;;8.67;63.20;99225.72;5130366;27;20047;-62
2022/02/18 06:24:25;;;;;;;8.32;3.22;;;;;;;8.78;63.07;99221.44;5148592;27;20042;-63
2022/02/18 06:26:53;;;;;;;11.57;3.17;;;;;;;8.86;63.14;99233.66;5134898;27;20432;-63
2022/02/18 06:29:20;;;;;;;8.02;2.47;;;;;;;8.96;63.22;99229.69;5127933;27;20043;-63
2022/02/18 06:31:47;;;;;;;8.88;2.70;;;;;;;8.82;63.95;99239.06;5134428;27;20050;-63
2022/02/18 06:34:15;;;;;;;12.70;4.35;;;;;;;8.83;64.19;99229.59;5135006;27;20506;-63
2022/02/18 06:36:42;;;;;;;11.30;3.30;;;;;;;8.59;67.14;99244.06;5131142;27;20047;-63
2022/02/18 06:39:09;;;;;;;11.57;3.40;;;;;;;8.47;69.42;99250.28;5129116;27;20047;-63
2022/02/18 06:41:38;;;;;;;13.00;3.33;;;;;;;8.05;76.60;99230.59;5131368;27;20058;-63
2022/02/18 06:44:09;;;;;;;15.38;3.30;;;;;;;7.80;77.25;99210.06;5124642;27;20058;-63
2022/02/18 06:46:36;;;;;;;14.35;3.42;;;;;;;7.75;76.67;99201.09;5133642;27;20055;-63
2022/02/18 06:49:03;;;;;;;15.02;3.65;;;;;;;7.77;75.62;99184.94;5134028;27;20047;-63
2022/02/18 06:51:31;;;;;;;16.83;4.13;;;;;;;7.78;76.59;99183.81;5113738;28;20480;-63
2022/02/18 06:53:58;;;;;;;13.45;3.55;;;;;;;7.84;74.84;99168.66;5120865;27;20054;-63
2022/02/18 06:56:26;;;;;;;12.98;3.03;;;;;;;7.84;75.59;99138.16;5133940;27;20055;-63
2022/02/18 06:58:54;;;;;;;15.02;4.28;;;;;;;7.85;74.25;99161.94;5131168;27;20088;-63
2022/02/18 07:01:22;;;;;;;17.75;3.45;;;;;;;7.88;74.26;99139.13;5133546;27;20411;-63
2022/02/18 07:03:50;;;;;;;9.48;3.05;;;;;;;7.89;74.70;99136.00;5132021;27;20047;-63
2022/02/18 07:06:17;;;;;;;16.15;3.53;;;;;;;7.90;73.42;99145.97;5133493;27;20136;-59
2022/02/18 07:08:44;;;;;;;14.00;3.38;;;;;;;7.71;73.81;99110.28;5133343;27;20431;-58
2022/02/18 07:11:11;;;;;;;12.30;3.35;;;;;;;7.81;73.66;99105.53;5131264;27;20055;-59
2022/02/18 07:13:39;;;;;;;12.55;3.13;;;;;;;7.72;73.87;99106.38;5131836;27;20055;-59
2022/02/18 07:16:08;;;;;;;16.55;3.58;;;;;;;7.92;73.33;99092.97;5132416;27;20051;-57
2022/02/18 07:18:35;;;;;;;9.30;3.65;;;;;;;7.95;73.45;99083.97;5132784;27;20110;-59
2022/02/18 07:21:05;;;;;;;18.77;3.85;;;;;;;7.98;73.47;99076.94;5132107;27;20388;-59
2022/02/18 07:23:36;;;;;;;14.88;3.33;;;;;;;7.94;72.87;99071.28;5132454;27;20142;-58
2022/02/18 07:26:03;;;;;;;11.25;2.92;;;;;;;7.99;74.26;99062.75;5132872;27;20595;-59
2022/02/18 07:28:33;;;;;;;14.93;3.42;;;;;;;7.88;74.51;99044.88;5129720;27;20054;-58
2022/02/18 07:31:00;;;;;;;11.55;2.90;;;;;;;8.17;74.66;99034.94;5128926;27;20062;-58
2022/02/18 07:33:29;;;;;;;11.07;3.50;;;;;;;8.13;74.69;99035.63;5132766;27;20047;-58
2022/02/18 07:35:56;;;;;;;11.43;3.10;;;;;;;8.08;75.34;99021.97;5132320;27;20047;-58
2022/02/18 07:38:24;;;;;;;9.32;2.65;;;;;;;8.17;74.84;99012.75;5131334;27;20055;-58
2022/02/18 07:40:51;;;;;;;11.93;3.20;;;;;;;8.20;74.48;99012.09;5127927;27;20062;-58
2022/02/18 07:43:18;;;;;;;17.23;3.55;;;;;;;8.32;74.94;99003.88;5127784;27;20058;-57
2022/02/18 07:45:46;;;;;;;15.70;3.47;;;;;;;8.27;75.64;99001.28;5130799;27;20534;-58
2022/02/18 07:48:13;;;;;;;15.05;3.53;;;;;;;8.17;75.87;98999.72;5132132;27;20051;-58
2022/02/18 07:50:42;;;;;;;15.88;4.22;;;;;;;8.22;76.83;98984.84;5131781;27;20393;-57
2022/02/18 07:53:09;;;;;;;10.88;3.45;;;;;;;8.32;76.07;98976.13;5128597;27;20078;-57
2022/02/18 07:55:37;;;;;;;13.23;3.33;;;;;;;8.33;76.50;98950.81;5130388;27;20062;-57
2022/02/18 07:58:05;;;;;;;13.52;3.72;;;;;;;8.30;77.25;98954.28;5131768;27;20047;-58
2022/02/18 08:00:33;;;;;;;16.70;4.43;;;;;;;8.32;77.27;98935.34;5121624;27;20443;-58
2022/02/18 08:03:01;;;;;;;12.98;3.10;;;;;;;8.44;76.61;98926.31;5131699;27;20050;-57
2022/02/18 08:05:28;;;;;;;15.30;3.67;;;;;;;8.41;77.45;98921.41;5130930;27;20499;-58
2022/02/18 08:07:58;;;;;;;11.43;3.70;;;;;;;8.54;76.85;98908.41;5130543;27;20066;-57
2022/02/18 08:10:32;;;;;;;9.15;2.92;;;;;;;8.61;76.49;98910.66;5127304;27;20054;-58
2022/02/18 08:12:59;;;;;;;15.65;4.28;;;;;;;8.57;76.61;98890.28;5129807;27;20492;-58
2022/02/18 08:15:26;;;;;;;13.20;3.95;;;;;;;8.77;75.89;98870.00;5130458;27;20057;-58
2022/02/18 08:17:56;;;;;;;15.33;3.67;;;;;;;8.79;75.37;98892.69;5128831;27;20198;-58
2022/02/18 08:20:27;;;;;;;15.45;3.88;;;;;;;8.93;74.97;98903.50;5130349;27;20051;-58
2022/02/18 08:22:54;;;;;;;14.75;3.53;;;;;;;8.89;74.55;98883.94;5125048;27;20043;-58
2022/02/18 08:25:23;;;;;;;12.68;3.65;;;;;;;9.04;74.53;98862.22;5126048;27;20492;-59
2022/02/18 08:27:51;;;;;;;12.43;3.27;;;;;;;9.04;74.85;98856.66;5130917;27;20059;-58
2022/02/18 08:30:18;;;;;;;13.48;3.42;;;;;;;9.04;75.11;98862.22;5118084;27;20063;-58
2022/02/18 08:32:45;;;;;;;10.55;3.25;;;;;;;9.06;74.97;98877.38;5115675;27;20043;-58
2022/02/18 08:35:12;;;;;;;15.95;3.97;;;;;;;9.22;74.14;98857.25;5131085;27;20407;-59
2022/02/18 08:37:40;;;;;;;17.00;3.70;;;;;;;9.05;75.07;98849.94;5126674;27;20069;-58
2022/02/18 08:40:08;;;;;;;14.80;3.78;;;;;;;9.11;75.22;98826.34;5129100;27;20051;-58
2022/02/18 08:42:37;;;;;;;13.05;3.75;;;;;;;9.12;75.57;98820.47;5128688;27;20051;-58
2022/02/18 08:45:07;;;;;;;10.38;3.58;;;;;;;9.13;75.79;98837.94;5120655;27;20055;-58
2022/02/18 08:47:34;;;;;;;;;;;;;;;9.21;75.35;98839.78;5129783;27;20074;-56
2022/02/18 08:50:03;;;;;;;12.77;3.80;;;;;;;9.39;74.84;98822.94;5128980;27;19919;-57
2022/02/18 08:52:33;;;;;;;11.30;2.92;;;;;;;9.49;74.46;98800.19;5129042;27;20048;-57
2022/02/18 08:55:00;;;;;;;11.40;3.67;;;;;;;9.42;74.47;98808.31;5128970;27;20051;-57
2022/02/18 08:57:28;;;;;;;8.43;3.13;;;;;;;9.49;74.35;98789.91;5129887;27;20066;-56
2022/02/18 08:59:57;;;;;;;13.05;3.47;;;;;;;9.61;74.47;98805.75;5123044;27;20047;-58
2022/02/18 09:02:25;;;;;;;11.93;2.80;;;;;;;9.55;74.78;98784.91;5129651;27;20070;-58
2022/02/18 09:04:52;;;;;;;16.02;3.50;;;;;;;9.69;74.99;98792.91;5129058;28;20054;-58
2022/02/18 09:07:20;;;;;;;10.55;3.28;;;;;;;9.88;74.34;98781.97;5130794;28;20055;-58
2022/02/18 09:09:47;;;;;;;11.75;3.33;;;;;;;9.46;75.05;98759.22;5129103;28;20062;-58
2022/02/18 09:12:14;;;;;;;7.95;2.90;;;;;;;9.63;75.31;98769.28;5130167;28;20582;-59
2022/02/18 09:14:42;;;;;;;12.32;3.20;;;;;;;9.69;75.35;98784.56;5128455;28;20074;-57
2022/02/18 09:17:13;;;;;;;13.43;2.75;;;;;;;9.74;75.23;98798.22;5129266;27;20051;-58
2022/02/18 09:19:40;;;;;;;13.07;3.05;;;;;;;9.78;75.11;98756.63;5133572;27;20054;-57
2022/02/18 09:22:07;;;;;;;10.27;2.70;;;;;;;9.85;75.23;98766.00;5130553;28;20054;-57
2022/02/18 09:24:35;;;;;;;11.52;2.63;;;;;;;9.68;75.90;98747.63;5129138;27;20403;-56
2022/02/18 09:27:02;;;;;;;7.53;2.88;;;;;;;9.90;75.35;98778.84;5129905;28;20410;-57
2022/02/18 09:29:30;;;;;;;9.65;2.75;;;;;;;9.91;75.68;98731.22;5125318;28;20498;-58
2022/02/18 09:32:03;;;;;;;11.10;3.55;;;;;;;9.77;76.12;98735.56;5120526;28;20047;-58
2022/02/18 09:34:32;;;;;;;10.70;3.10;;;;;;;9.81;76.62;98753.16;5124717;28;20131;-60
2022/02/18 09:37:00;;;;;;;10.40;2.60;;;;;;;10.00;76.24;98714.38;5129305;28;20052;-60
2022/02/18 09:39:27;;;;;;;12.10;2.90;;;;;;;9.99;75.89;98723.88;5130483;28;20380;-59
2022/02/18 09:41:55;;;;;;;9.43;3.17;;;;;;;9.99;75.63;98687.72;5127987;28;20040;-59
2022/02/18 09:44:25;;;;;;;10.27;2.92;;;;;;;10.01;75.41;98693.72;5130167;27;20043;-58
2022/02/18 09:46:52;;;;;;;;;;;;;;;10.21;74.67;98691.91;5119291;28;20062;-57
2022/02/18 09:49:20;;;;;;;11.68;4.22;;;;;;;10.12;74.90;98683.72;5123334;28;19927;-57
2022/02/18 09:51:49;;;;;;;9.18;2.55;;;;;;;10.22;74.71;98687.94;5131707;27;20051;-58
2022/02/18 09:54:16;;;;;;;9.23;2.97;;;;;;;10.41;74.06;98659.47;5133075;27;20071;-59
2022/02/18 09:56:44;;;;;;;8.75;2.45;;;;;;;10.35;74.07;98674.81;5132924;27;20055;-59
2022/02/18 09:59:13;;;;;;;9.50;2.33;;;;;;;10.51;73.60;98661.72;5129741;27;20058;-59
2022/02/18 10:01:41;;;;;;;5.63;1.98;;;;;;;10.68;73.48;98705.09;5128967;27;20082;-58
2022/02/18 10:04:10;;;;;;;8.43;2.58;;;;;;;10.61;73.56;98693.00;5132441;27;20358;-58
2022/02/18 10:06:38;;;;;;;7.65;2.22;;;;;;;10.74;74.10;98664.66;5132058;27;20483;-61
2022/02/18 10:09:07;;;;;;;7.15;1.80;;;;;;;10.69;74.07;98655.81;5133681;27;20046;-61
2022/02/18 10:11:51;;;;;;;6.45;1.98;;;;;;;10.62;74.89;98628.56;5132370;27;20058;-61
2022/02/18 10:14:18;;;;;;;6.20;2.30;;;;;;;10.73;75.05;98623.25;5130871;27;20058;-59
2022/02/18 10:16:46;;;;;;;6.07;1.90;;;;;;;10.68;74.73;98654.19;5132421;27;20047;-59
2022/02/18 10:19:16;;;;;;;9.63;2.35;;;;;;;10.58;75.67;98599.84;5133675;27;20042;-60
2022/02/18 10:21:44;;;;;;;6.57;1.95;;;;;;;10.77;75.22;98616.63;5133892;27;20058;-60
2022/02/18 10:24:15;;;;;;;6.63;2.08;;;;;;;10.68;75.53;98610.44;5133881;27;20054;-60
2022/02/18 10:26:44;;;;;;;8.05;2.30;;;;;;;10.74;75.75;98603.41;5131916;27;20394;-60
2022/02/18 10:29:18;;;;;;;6.57;2.30;;;;;;;10.62;75.16;98611.88;5130605;27;20073;-59
2022/02/18 10:31:45;;;;;;;6.70;2.10;;;;;;;10.60;75.38;98593.91;5132903;27;20114;-59
2022/02/18 10:34:13;;;;;;;6.88;2.05;;;;;;;10.57;75.57;98607.38;5133034;27;20054;-59
2022/02/18 10:36:42;;;;;;;9.15;1.70;;;;;;;10.76;75.89;98589.94;5132860;27;20380;-59
2022/02/18 10:39:27;;;;;;;5.28;2.10;;;;;;;10.69;77.48;98617.63;5133027;27;20407;-59
2022/02/18 10:41:57;;;;;;;6.63;2.10;;;;;;;10.65;76.63;98591.66;5132892;27;20066;-59
2022/02/18 10:44:26;;;;;;;;;;;;;;;10.58;77.55;98591.47;5117695;27;20401;-59
2022/02/18 10:46:57;;;;;;;4.50;1.90;;;;;;;10.63;76.61;98573.72;5125050;27;20375;-59
2022/02/18 10:49:29;;;;;;;6.25;1.70;;;;;;;10.64;76.78;98580.88;5131815;27;20479;-59
2022/02/18 10:52:03;;;;;;;6.85;2.15;;;;;;;10.75;76.95;98554.09;5132886;27;20448;-58
2022/02/18 10:54:33;;;;;;;7.22;2.05;;;;;;;10.80;75.98;98556.59;5133698;27;20518;-59
2022/02/18 10:57:20;;;;;;;;;;;;;;;10.69;76.10;98550.78;5132243;27;20055;-59
2022/02/18 10:59:49;;;;;;;4.28;1.63;;;;;;;10.84;76.15;98524.06;5107109;28;19927;-58
2022/02/18 11:02:36;;;;;;;6.97;2.13;;;;;;;10.85;75.97;98520.09;5127736;27;20055;-58
2022/02/18 11:05:23;;;;;;;3.85;1.70;;;;;;;10.95;75.22;98524.31;5130857;27;20401;-56
2022/02/18 11:07:52;;;;;;;3.83;1.50;;;;;;;10.85;75.38;98513.72;5132552;27;20051;-58
2022/02/18 11:10:39;;;;;;;6.50;1.95;;;;;;;11.02;74.73;98518.06;5132195;27;20051;-58
2022/02/18 11:13:07;;;;;;;3.65;1.25;;;;;;;11.14;74.45;98510.38;5085852;28;20053;-58
2022/02/18 11:15:37;;;;;;;5.72;2.10;;;;;;;11.13;74.84;98502.41;5087045;28;20058;-59
2022/02/18 11:18:04;;;;;;;4.60;1.50;;;;;;;11.16;74.55;98496.09;5090574;28;20055;-59
2022/02/18 11:20:35;;;;;;;4.07;1.20;;;;;;;11.26;73.80;98477.97;5090872;28;20054;-57
2022/02/18 11:23:02;;;;;;;4.85;1.40;;;;;;;11.21;74.10;98476.28;5088951;28;20067;-59
2022/02/18 11:25:30;;;;;;;5.47;1.60;;;;;;;11.44;76.78;98442.06;5083875;28;20049;-44
2022/02/18 11:28:00;;;;;;;3.65;1.10;;;;;;;11.54;75.75;98455.41;5079046;28;20059;-57
2022/02/18 11:30:27;;;;;;;3.58;1.20;;;;;;;11.50;73.25;98457.31;5089721;28;20150;-58
2022/02/18 11:33:20;;;;;;;3.63;1.25;;;;;;;11.62;72.26;98448.78;5075996;28;20075;-58
2022/02/18 11:36:20;;;;;;;4.20;1.38;;;;;;;11.65;72.39;98436.88;5089476;28;20052;-57
2022/02/18 11:39:02;;;;;;;4.03;1.10;;;;;;;11.57;72.61;98418.44;5075053;28;20056;-58
2022/02/18 11:41:43;;;;;;;5.32;1.38;;;;;;;11.38;73.67;98431.25;5090855;28;20048;-58
2022/02/18 11:44:13;;;;;;;2.10;1.08;;;;;;;11.70;72.51;98402.31;5088587;28;20055;-58